Time;durP1;ratioP1;P1;durP2;ratioP2;P2;SDS_P1;SDS_P2;PMS_P1;PMS_P2;Temp;Humidity;BMP_temperature;BMP_pressure;BME280_temperature;BME280_humidity;BME280_pressure;Samples;Min_cycle;Max_cycle;Signal;HPM_P1;HPM_P2
2022/07/23 00:00:34;;;;;;;7.38;3.35;;;;;;;;;;5054562;28;20490;-76
2022/07/23 00:03:00;;;;;;;5.93;3.30;;;;;;;;;;5072294;28;20040;-75
2022/07/23 00:05:27;;;;;;;7.03;3.55;;;;;;;;;;5070805;28;20741;-76
2022/07/23 00:07:53;;;;;;;5.07;3.10;;;;;;;;;;5072291;28;20048;-76
2022/07/23 00:10:19;;;;;;;5.43;3.05;;;;;;;;;;5071027;28;20045;-76
2022/07/23 00:12:45;;;;;;;10.57;3.65;;;;;;;;;;5071194;28;20468;-76
2022/07/23 00:15:11;;;;;;;5.28;3.17;;;;;;;;;;5072155;28;20041;-76
2022/07/23 00:17:37;;;;;;;8.50;4.03;;;;;;;;;;5071031;28;20559;-76
2022/07/23 00:20:03;;;;;;;8.32;3.40;;;;;;;;;;5070803;28;20041;-76
2022/07/23 00:22:29;;;;;;;4.63;4.03;;;;;;;;;;5070631;28;20094;-76
2022/07/23 00:24:58;;;;;;;7.43;3.78;;;;;;;;;;5070733;28;20076;-76
2022/07/23 00:27:24;;;;;;;6.80;3.78;;;;;;;;;;5071978;28;20047;-76
2022/07/23 00:29:50;;;;;;;6.20;3.95;;;;;;;;;;5072162;28;20447;-76
2022/07/23 00:32:16;;;;;;;5.82;3.97;;;;;;;;;;5071875;28;20063;-76
2022/07/23 00:34:42;;;;;;;7.22;3.72;;;;;;;;;;5070357;28;20044;-76
2022/07/23 00:37:08;;;;;;;4.63;3.80;;;;;;;;;;5071857;28;20567;-76
2022/07/23 00:39:34;;;;;;;5.82;4.07;;;;;;;;;;5070421;28;20040;-76
2022/07/23 00:42:00;;;;;;;5.18;3.42;;;;;;;;;;5070593;28;20082;-76
2022/07/23 00:44:27;;;;;;;6.85;3.47;;;;;;;;;;5070275;28;20044;-76
2022/07/23 00:46:55;;;;;;;6.05;3.83;;;;;;;;;;5053937;28;20626;-76
2022/07/23 00:49:21;;;;;;;7.05;3.63;;;;;;;;;;5053568;28;20052;-76
2022/07/23 00:51:48;;;;;;;5.47;3.28;;;;;;;;;;5070722;28;20444;-76
2022/07/23 00:54:14;;;;;;;4.22;3.58;;;;;;;;;;5070073;28;20051;-76
2022/07/23 00:56:42;;;;;;;5.00;4.45;;;;;;;;;;5071832;28;20040;-76
2022/07/23 00:59:09;;;;;;;7.13;3.85;;;;;;;;;;5070390;28;20489;-75
2022/07/23 01:01:35;;;;;;;8.93;3.42;;;;;;;;;;5071009;28;20379;-76
2022/07/23 01:04:01;;;;;;;4.78;3.70;;;;;;;;;;5071241;28;20071;-76
2022/07/23 01:06:28;;;;;;;10.77;4.13;;;14.40;99.90;;;;;;5070297;28;20044;-76
2022/07/23 01:08:55;;;;;;;5.40;3.90;;;14.40;99.90;;;;;;5071834;28;20387;-76
2022/07/23 01:11:23;;;;;;;8.38;3.83;;;14.40;99.90;;;;;;5070458;28;20541;-76
2022/07/23 01:13:48;;;;;;;4.10;3.40;;;14.20;99.90;;;;;;5071494;28;20051;-76
2022/07/23 01:16:14;;;;;;;4.82;3.53;;;14.30;99.90;;;;;;5069988;28;20037;-76
2022/07/23 01:18:39;;;;;;;11.02;3.95;;;14.10;99.90;;;;;;5071040;28;20544;-76
2022/07/23 01:21:05;;;;;;;8.98;3.92;;;14.20;99.90;;;;;;5070368;28;20043;-76
2022/07/23 01:23:31;;;;;;;5.80;3.45;;;14.30;99.90;;;;;;5070327;28;20036;-76
2022/07/23 01:25:56;;;;;;;6.05;4.00;;;14.20;99.90;;;;;;5072309;28;20040;-76
2022/07/23 01:28:22;;;;;;;4.43;4.03;;;14.10;99.90;;;;;;5075085;28;20047;-76
2022/07/23 01:30:48;;;;;;;7.25;4.15;;;14.10;99.90;;;;;;5073820;28;20080;-76
2022/07/23 01:33:14;;;;;;;6.75;4.45;;;14.20;99.90;;;;;;5073987;28;20124;-76
2022/07/23 01:35:40;;;;;;;6.72;4.07;;;14.00;99.90;;;;;;5074977;28;20032;-76
2022/07/23 01:38:06;;;;;;;4.25;3.85;;;14.00;99.90;;;;;;5073671;28;20413;-76
2022/07/23 01:40:32;;;;;;;5.30;3.90;;;;;;;;;;5075182;28;20040;-75
2022/07/23 01:42:58;;;;;;;6.95;3.80;;;13.90;99.90;;;;;;5072620;28;20452;-75
2022/07/23 01:45:23;;;;;;;5.03;3.90;;;14.00;99.90;;;;;;5073416;28;20044;-76
2022/07/23 01:47:49;;;;;;;5.15;3.45;;;13.90;99.90;;;;;;5073436;28;20162;-75
2022/07/23 01:50:15;;;;;;;4.90;3.80;;;13.80;99.90;;;;;;5073667;28;20036;-76
2022/07/23 01:52:40;;;;;;;6.22;3.80;;;;;;;;;;5073650;28;20036;-76
2022/07/23 01:55:07;;;;;;;5.00;3.58;;;13.90;99.90;;;;;;5074817;28;20040;-75
2022/07/23 01:57:33;;;;;;;5.00;3.67;;;;;;;;;;5073524;28;20117;-75
2022/07/23 01:59:59;;;;;;;3.65;3.28;;;13.70;99.90;;;;;;5074771;28;20087;-75
2022/07/23 02:02:24;;;;;;;9.23;4.00;;;13.60;99.90;;;;;;5074497;28;20117;-75
2022/07/23 02:04:50;;;;;;;5.47;3.83;;;13.60;99.90;;;;;;5073474;28;20451;-76
2022/07/23 02:07:16;;;;;;;6.43;3.83;;;13.80;99.90;;;;;;5073527;28;20033;-76
2022/07/23 02:09:41;;;;;;;6.72;4.05;;;13.60;99.90;;;;;;5056663;28;20132;-76
2022/07/23 02:12:07;;;;;;;6.85;4.22;;;13.80;99.90;;;;;;5073299;28;20066;-76
2022/07/23 02:14:32;;;;;;;4.65;3.80;;;13.70;99.90;;;;;;5056493;28;20047;-76
2022/07/23 02:16:58;;;;;;;5.57;3.50;;;13.80;99.90;;;;;;5074219;28;20040;-76
2022/07/23 02:19:24;;;;;;;8.73;4.47;;;;;;;;;;5056511;28;20048;-75
2022/07/23 02:21:50;;;;;;;6.95;4.53;;;;;;;;;;5073013;28;20048;-76
2022/07/23 02:24:16;;;;;;;8.63;4.68;;;;;;;;;;5072576;28;20513;-76
2022/07/23 02:26:42;;;;;;;5.05;4.15;;;;;;;;;;5074078;28;20111;-76
2022/07/23 02:29:08;;;;;;;7.10;4.43;;;;;;;;;;5072780;28;20131;-76
2022/07/23 02:31:34;;;;;;;9.48;4.45;;;;;;;;;;5072584;28;20072;-76
2022/07/23 02:34:01;;;;;;;6.18;4.38;;;13.50;99.90;;;;;;5072524;28;20093;-76
2022/07/23 02:36:27;;;;;;;6.43;4.25;;;13.60;99.90;;;;;;5072911;28;20044;-76
2022/07/23 02:38:53;;;;;;;5.78;3.70;;;;;;;;;;5071912;28;20051;-75
2022/07/23 02:41:19;;;;;;;6.97;3.95;;;;;;;;;;5072546;28;20040;-75
2022/07/23 02:43:45;;;;;;;7.72;4.38;;;;;;;;;;5073888;28;20486;-76
2022/07/23 02:46:10;;;;;;;8.10;4.03;;;13.50;99.90;;;;;;5072361;28;20146;-76
2022/07/23 02:48:36;;;;;;;7.40;4.22;;;13.40;99.90;;;;;;5072787;28;20067;-75
2022/07/23 02:51:02;;;;;;;5.95;4.57;;;13.50;99.90;;;;;;5072352;28;20555;-76
2022/07/23 02:53:28;;;;;;;5.55;3.92;;;;;;;;;;5072692;28;20067;-75
2022/07/23 02:55:54;;;;;;;4.82;4.32;;;;;;;;;;5073066;28;20075;-75
2022/07/23 02:58:19;;;;;;;5.30;4.40;;;13.30;99.90;;;;;;5101851;22;20450;-71
2022/07/23 03:00:45;;;;;;;5.75;4.10;;;13.40;99.90;;;;;;5091952;28;20051;-71
2022/07/23 03:03:11;;;;;;;6.20;4.50;;;;;;;;;;5090776;28;20032;-71
2022/07/23 03:05:37;;;;;;;4.97;4.00;;;13.30;99.90;;;;;;5092273;28;20070;-71
2022/07/23 03:08:02;;;;;;;5.57;4.32;;;13.40;99.90;;;;;;5057177;28;20035;-71
2022/07/23 03:10:28;;;;;;;10.10;4.65;;;13.30;99.90;;;;;;5074034;28;20127;-72
2022/07/23 03:12:54;;;;;;;6.55;4.30;;;13.10;99.90;;;;;;5074199;28;20075;-71
2022/07/23 03:15:19;;;;;;;5.72;4.53;;;13.30;99.90;;;;;;5073880;28;20114;-71
2022/07/23 03:17:45;;;;;;;6.65;4.03;;;13.20;99.90;;;;;;5057193;28;20035;-71
2022/07/23 03:20:10;;;;;;;7.70;4.10;;;13.30;99.90;;;;;;5092256;28;20482;-71
2022/07/23 03:22:36;;;;;;;7.18;4.88;;;13.30;99.90;;;;;;5073780;28;20036;-71
2022/07/23 03:25:02;;;;;;;5.70;4.45;;;13.20;99.90;;;;;;5057200;28;20067;-71
2022/07/23 03:27:29;;;;;;;6.90;4.43;;;13.30;99.90;;;;;;5091982;28;20501;-71
2022/07/23 03:29:57;;;;;;;7.03;4.82;;;13.20;99.90;;;;;;5073468;28;20044;-71
2022/07/23 03:32:23;;;;;;;7.78;4.85;;;13.20;99.90;;;;;;5073595;28;20378;-71
2022/07/23 03:34:49;;;;;;;9.27;5.38;;;13.20;99.90;;;;;;5091428;28;20047;-71
2022/07/23 03:37:16;;;;;;;11.15;5.88;;;13.10;99.90;;;;;;5091671;28;20071;-71
2022/07/23 03:39:42;;;;;;;7.47;4.55;;;13.10;99.90;;;;;;5091748;28;20550;-71
2022/07/23 03:42:07;;;;;;;7.57;5.30;;;13.00;99.90;;;;;;5091649;28;20111;-71
2022/07/23 03:44:33;;;;;;;6.50;4.45;;;13.30;99.90;;;;;;5091339;28;20040;-71
2022/07/23 03:46:59;;;;;;;6.53;4.97;;;13.10;99.90;;;;;;5073381;28;20098;-71
2022/07/23 03:49:25;;;;;;;6.70;4.85;;;13.20;99.90;;;;;;5073649;28;20121;-71
2022/07/23 03:51:50;;;;;;;7.65;4.80;;;13.20;99.90;;;;;;5073320;28;20512;-71
2022/07/23 03:54:16;;;;;;;9.00;5.13;;;13.30;99.90;;;;;;5072893;28;20040;-71
2022/07/23 03:56:42;;;;;;;11.10;5.47;;;13.30;99.90;;;;;;5019507;28;1053550;-71
2022/07/23 03:59:09;;;;;;;9.10;5.32;;;13.30;99.90;;;;;;5091849;28;20043;-71
2022/07/23 04:01:35;;;;;;;6.80;4.72;;;;;;;;;;5057395;28;20036;-71
2022/07/23 04:04:01;;;;;;;7.78;4.93;;;13.30;99.90;;;;;;5073683;28;20036;-71
2022/07/23 04:06:27;;;;;;;6.25;4.13;;;13.30;99.90;;;;;;5074189;28;20044;-71
2022/07/23 04:08:53;;;;;;;7.57;4.75;;;;;;;;;;5074020;28;20043;-71
2022/07/23 04:11:19;;;;;;;5.88;4.85;;;13.50;99.90;;;;;;5091985;28;20132;-70
2022/07/23 04:13:45;;;;;;;11.75;4.93;;;;;;;;;;5073473;28;20079;-70
2022/07/23 04:16:11;;;;;;;7.90;4.80;;;13.40;99.90;;;;;;5091977;28;20040;-71
2022/07/23 04:18:36;;;;;;;6.75;4.82;;;13.60;99.90;;;;;;5073329;28;20036;-71
2022/07/23 04:21:02;;;;;;;6.60;5.00;;;;;;;;;;5091908;28;20036;-72
2022/07/23 04:23:28;;;;;;;8.57;4.93;;;;;;;;;;5056793;28;20032;-72
2022/07/23 04:25:54;;;;;;;6.35;5.25;;;13.70;99.90;;;;;;5091497;28;20043;-72
2022/07/23 04:28:20;;;;;;;7.80;4.68;;;13.60;99.90;;;;;;5091371;28;20032;-71
2022/07/23 04:30:45;;;;;;;5.60;4.43;;;13.60;99.90;;;;;;5073556;28;20067;-71
2022/07/23 04:33:11;;;;;;;5.57;4.43;;;;;;;;;;5073804;28;20047;-71
2022/07/23 04:35:37;;;;;;;9.15;4.68;;;13.40;99.90;;;;;;5089983;28;20580;-71
2022/07/23 04:38:03;;;;;;;5.85;4.63;;;13.40;99.90;;;;;;5073748;28;20146;-71
2022/07/23 04:40:29;;;;;;;8.00;5.05;;;13.60;99.90;;;;;;5073400;28;20040;-71
2022/07/23 04:42:56;;;;;;;9.02;4.90;;;13.60;99.90;;;;;;5073291;28;20048;-72
2022/07/23 04:45:25;;;;;;;8.90;6.07;;;;;;;;;;5072934;28;20042;-70
2022/07/23 04:47:51;;;;;;;8.13;5.45;;;13.70;99.90;;;;;;5091407;28;20071;-71
2022/07/23 04:50:21;;;;;;;8.73;5.22;;;13.70;99.90;;;;;;5091524;28;20075;-71
2022/07/23 04:52:50;;;;;;;9.52;5.90;;;13.60;99.90;;;;;;5091495;28;20040;-71
2022/07/23 04:55:17;;;;;;;7.93;5.47;;;13.70;99.90;;;;;;5072924;28;20072;-71
2022/07/23 04:57:43;;;;;;;8.23;5.57;;;13.70;99.90;;;;;;5073130;28;20557;-71
2022/07/23 05:00:09;;;;;;;7.70;5.85;;;13.70;99.90;;;;;;5091450;28;20051;-71
2022/07/23 05:02:35;;;;;;;7.63;5.25;;;13.80;99.90;;;;;;5077210;28;20080;-71
2022/07/23 05:05:00;;;;;;;6.05;4.93;;;13.90;99.90;;;;;;5060219;28;20539;-72
2022/07/23 05:07:26;;;;;;;10.30;5.13;;;13.90;99.90;;;;;;5077369;28;20036;-71
2022/07/23 05:09:51;;;;;;;9.38;5.07;;;14.00;99.90;;;;;;5077482;28;20436;-71
2022/07/23 05:12:17;;;;;;;7.43;4.57;;;14.10;99.90;;;;;;5095481;28;20047;-71
2022/07/23 05:14:43;;;;;;;8.55;4.28;;;;;;;;;;5095162;28;20036;-71
2022/07/23 05:17:09;;;;;;;8.50;4.95;;;14.40;99.90;;;;;;5094217;28;20044;-72
2022/07/23 05:19:35;;;;;;;9.23;4.88;;;14.20;99.90;;;;;;5076881;28;20079;-71
2022/07/23 05:22:00;;;;;;;8.27;4.78;;;14.30;99.90;;;;;;5095215;28;20036;-71
2022/07/23 05:24:26;;;;;;;6.20;4.78;;;14.50;99.90;;;;;;5094792;28;20032;-71
2022/07/23 05:26:52;;;;;;;7.35;4.70;;;14.50;99.90;;;;;;5076954;28;20062;-71
2022/07/23 05:29:18;;;;;;;11.93;5.00;;;14.40;99.90;;;;;;5076847;28;20040;-71
2022/07/23 05:31:43;;;;;;;5.38;3.85;;;14.80;99.90;;;;;;5081842;28;20046;-71
2022/07/23 05:34:09;;;;;;;6.47;4.10;;;14.70;99.90;;;;;;5087052;28;20136;-71
2022/07/23 05:36:35;;;;;;;7.18;4.00;;;14.90;99.90;;;;;;5062552;28;20501;-71
2022/07/23 05:39:00;;;;;;;7.00;3.85;;;15.00;99.90;;;;;;5076747;28;20122;-71
2022/07/23 05:41:26;;;;;;;7.55;3.80;;;14.90;99.90;;;;;;5076516;28;20044;-71
2022/07/23 05:43:51;;;;;;;6.10;4.00;;;15.10;99.90;;;;;;5094881;28;20036;-71
2022/07/23 05:46:17;;;;;;;5.80;3.35;;;15.00;99.90;;;;;;5059832;28;20036;-71
2022/07/23 05:48:43;;;;;;;5.50;3.15;;;15.20;99.90;;;;;;5076698;28;20085;-72
2022/07/23 05:51:08;;;;;;;6.72;3.47;;;15.30;99.90;;;;;;5094679;28;20650;-71
2022/07/23 05:53:38;;;;;;;6.40;2.97;;;15.40;99.90;;;;;;5076375;28;20608;-71
2022/07/23 05:56:04;;;;;;;7.03;3.25;;;15.40;99.90;;;;;;5075920;28;20042;-71
2022/07/23 05:58:29;;;;;;;7.70;3.55;;;15.60;99.90;;;;;;5076069;28;20431;-71
2022/07/23 06:00:55;;;;;;;7.22;2.95;;;15.60;99.90;;;;;;5094507;28;20036;-71
2022/07/23 06:03:20;;;;;;;5.28;3.10;;;15.60;99.90;;;;;;5100428;28;20378;-71
2022/07/23 06:05:46;;;;;;;4.30;2.10;;;15.60;99.90;;;;;;5104247;28;20489;-71
2022/07/23 06:08:12;;;;;;;5.72;2.13;;;;;;;;;;5099454;28;20040;-72
2022/07/23 06:10:37;;;;;;;10.07;2.90;;;15.80;99.90;;;;;;5072402;28;20052;-72
2022/07/23 06:13:03;;;;;;;2.90;1.63;;;16.00;99.90;;;;;;5055980;28;20544;-71
2022/07/23 06:15:30;;;;;;;4.10;2.25;;;16.20;99.90;;;;;;5073529;28;20040;-71
2022/07/23 06:17:55;;;;;;;3.40;1.52;;;16.10;99.90;;;;;;5058617;28;20097;-71
2022/07/23 06:20:21;;;;;;;2.53;1.55;;;16.20;99.90;;;;;;5070600;28;20364;-70
2022/07/23 06:22:47;;;;;;;3.33;1.60;;;16.00;99.90;;;;;;5074027;28;20040;-71
2022/07/23 06:25:12;;;;;;;4.45;2.22;;;16.40;99.90;;;;;;5092607;28;20039;-71
2022/07/23 06:27:38;;;;;;;3.05;1.55;;;16.50;99.90;;;;;;5093497;28;20028;-72
2022/07/23 06:30:08;;;;;;;3.13;1.48;;;16.70;99.90;;;;;;5072016;28;20097;-72
2022/07/23 06:32:33;;;;;;;4.15;1.55;;;16.60;99.90;;;;;;5037078;28;20110;-72
2022/07/23 06:34:59;;;;;;;4.22;1.60;;;16.60;99.90;;;;;;5077660;28;20032;-73
2022/07/23 06:37:24;;;;;;;3.33;1.40;;;16.70;99.90;;;;;;5065658;28;20513;-72
2022/07/23 06:39:50;;;;;;;4.88;2.30;;;16.80;99.90;;;;;;5063152;28;20464;-70
2022/07/23 06:42:16;;;;;;;6.90;1.52;;;16.90;99.90;;;;;;5067575;28;20546;-73
2022/07/23 06:44:41;;;;;;;1.17;0.90;;;17.10;99.90;;;;;;5089509;28;20051;-72
2022/07/23 06:47:07;;;;;;;1.45;1.20;;;16.90;99.90;;;;;;5067783;28;20126;-73
2022/07/23 06:49:33;;;;;;;3.35;1.25;;;17.00;99.90;;;;;;5066176;28;20046;-72
2022/07/23 06:51:58;;;;;;;4.05;1.10;;;17.30;99.90;;;;;;5089441;28;20085;-71
2022/07/23 06:54:24;;;;;;;1.83;1.10;;;18.40;99.90;;;;;;5070391;28;20637;-72
2022/07/23 06:56:50;;;;;;;2.95;0.90;;;17.40;99.90;;;;;;5085814;28;20047;-72
2022/07/23 06:59:15;;;;;;;2.45;1.25;;;17.50;99.90;;;;;;5091348;28;20061;-73
2022/07/23 07:01:41;;;;;;;1.85;0.57;;;17.50;99.90;;;;;;5072381;28;20081;-73
2022/07/23 07:04:07;;;;;;;3.30;0.80;;;17.60;99.90;;;;;;5074173;28;20081;-73
2022/07/23 07:06:32;;;;;;;1.00;0.50;;;17.40;99.90;;;;;;5073663;28;20481;-73
2022/07/23 07:08:58;;;;;;;2.60;1.48;;;17.80;99.90;;;;;;5075302;28;20079;-72
2022/07/23 07:11:25;;;;;;;2.53;1.52;;;19.00;99.90;;;;;;5093223;28;20036;-72
2022/07/23 07:13:50;;;;;;;3.95;1.50;;;19.80;99.90;;;;;;5074590;28;20123;-72
2022/07/23 07:16:16;;;;;;;0.95;0.82;;;18.30;99.90;;;;;;5074870;28;20087;-71
2022/07/23 07:18:42;;;;;;;2.28;0.80;;;18.10;99.90;;;;;;5092787;28;20043;-73
2022/07/23 07:21:07;;;;;;;1.23;0.70;;;20.40;99.90;;;;;;5075997;28;20043;-72
2022/07/23 07:23:33;;;;;;;1.35;0.63;;;19.50;99.90;;;;;;5082542;28;20601;-72
2022/07/23 07:25:58;;;;;;;1.75;0.52;;;18.70;99.90;;;;;;5101486;28;20064;-72
2022/07/23 07:28:24;;;;;;;0.52;0.50;;;19.20;99.90;;;;;;5085646;28;20039;-72
2022/07/23 07:30:49;;;;;;;0.70;0.47;;;18.30;99.90;;;;;;5082997;28;20035;-72
2022/07/23 07:33:15;;;;;;;2.72;0.60;;;18.20;99.90;;;;;;5092453;28;20031;-73
2022/07/23 07:35:41;;;;;;;2.13;0.43;;;18.50;99.90;;;;;;5073994;28;20036;-72
2022/07/23 07:38:06;;;;;;;2.25;0.98;;;19.60;99.90;;;;;;5076095;28;20036;-72
2022/07/23 07:40:32;;;;;;;0.60;0.52;;;18.30;99.90;;;;;;5111456;28;20082;-72
2022/07/23 07:42:58;;;;;;;1.65;0.40;;;18.30;99.90;;;;;;5112375;28;20066;-72
2022/07/23 07:45:24;;;;;;;0.63;0.63;;;19.70;99.90;;;;;;5112427;28;20031;-72
2022/07/23 07:47:52;;;;;;;2.92;0.50;;;18.60;99.90;;;;;;5111430;28;20170;-72
2022/07/23 07:50:18;;;;;;;1.05;0.60;;;19.90;99.90;;;;;;5094290;28;20073;-72
2022/07/23 07:52:44;;;;;;;0.90;0.38;;;19.60;99.90;;;;;;5094544;28;20040;-72
2022/07/23 07:55:10;;;;;;;1.73;0.50;;;20.00;99.90;;;;;;5112233;28;20515;-72
2022/07/23 07:57:37;;;;;;;1.65;0.73;;;18.70;99.90;;;;;;5077121;28;20103;-72
2022/07/23 08:00:05;;;;;;;1.92;0.63;;;18.80;99.90;;;;;;5077396;28;20099;-72
2022/07/23 08:02:40;;;;;;;1.02;0.50;;;18.60;99.90;;;;;;5077532;28;20043;-72
2022/07/23 08:05:06;;;;;;;1.52;0.60;;;18.60;99.90;;;;;;5112151;28;20508;-72
2022/07/23 08:07:31;;;;;;;2.42;0.40;;;18.50;99.90;;;;;;5094121;28;20043;-72
2022/07/23 08:09:57;;;;;;;2.20;0.68;;;18.50;99.90;;;;;;5093970;28;20504;-72
2022/07/23 08:12:22;;;;;;;2.40;0.70;;;20.40;99.90;;;;;;5112423;28;20436;-72
2022/07/23 08:14:48;;;;;;;2.30;0.60;;;19.80;99.90;;;;;;5093733;28;20039;-72
2022/07/23 08:17:14;;;;;;;5.45;0.70;;;20.10;99.90;;;;;;5093913;28;20044;-72
2022/07/23 08:19:39;;;;;;;2.20;1.15;;;18.80;99.90;;;;;;5093800;28;20477;-72
2022/07/23 08:22:05;;;;;;;1.50;1.20;;;18.40;99.90;;;;;;5076752;28;20045;-72
2022/07/23 08:24:30;;;;;;;4.05;1.10;;;18.70;99.90;;;;;;5110752;28;20097;-72
2022/07/23 08:26:56;;;;;;;3.65;1.42;;;20.30;99.90;;;;;;5093765;28;20046;-72
2022/07/23 08:29:21;;;;;;;2.45;0.68;;;20.00;99.90;;;;;;5094107;28;20046;-72
2022/07/23 08:31:47;;;;;;;3.47;0.93;;;18.60;99.90;;;;;;5093936;28;20039;-72
2022/07/23 08:34:12;;;;;;;1.35;0.85;;;18.60;99.90;;;;;;5093675;28;20511;-71
2022/07/23 08:36:38;;;;;;;0.75;0.75;;;20.00;99.90;;;;;;5092663;28;20044;-72
2022/07/23 08:39:04;;;;;;;2.35;0.50;;;19.90;99.90;;;;;;5093597;28;20039;-72
2022/07/23 08:41:29;;;;;;;1.45;0.93;;;19.20;99.90;;;;;;5112318;28;20032;-72
2022/07/23 08:43:56;;;;;;;2.53;1.00;;;19.10;99.90;;;;;;5076964;28;20035;-72
2022/07/23 08:46:23;;;;;;;3.17;0.60;;;18.50;99.90;;;;;;5094330;28;20462;-72
2022/07/23 08:48:50;;;;;;;3.20;0.65;;;19.30;99.90;;;;;;5111549;28;20055;-72
2022/07/23 08:51:16;;;;;;;0.50;0.50;;;19.60;99.90;;;;;;5093515;28;20062;-72
2022/07/23 08:53:42;;;;;;;0.52;0.52;;;18.20;99.90;;;;;;5076640;28;20514;-72
2022/07/23 08:56:08;;;;;;;0.80;0.60;;;18.40;99.90;;;;;;5111765;28;20086;-72
2022/07/23 08:58:34;;;;;;;0.70;0.60;;;19.00;99.90;;;;;;5059920;22;20079;-77
2022/07/23 09:01:01;;;;;;;3.22;0.60;;;18.50;99.90;;;;;;5010846;28;20038;-77
2022/07/23 09:03:32;;;;;;;0.55;0.50;;;18.40;99.90;;;;;;5010656;28;20033;-76
2022/07/23 09:05:59;;;;;;;1.38;0.73;;;18.80;99.90;;;;;;5010382;28;20521;-77
2022/07/23 09:08:39;;;;;;;0.98;0.60;;;19.90;99.90;;;;;;5011923;28;20115;-77
2022/07/23 09:11:08;;;;;;;1.65;1.20;;;18.50;99.90;;;;;;5011978;28;20453;-77
2022/07/23 09:13:39;;;;;;;2.22;0.90;;;18.70;99.90;;;;;;5010649;28;20030;-77
2022/07/23 09:16:16;;;;;;;3.38;1.17;;;18.90;99.90;;;;;;4993894;28;20499;-77
2022/07/23 09:18:45;;;;;;;1.50;0.88;;;18.80;99.90;;;;;;5012078;28;20065;-77
2022/07/23 09:21:23;;;;;;;2.03;0.63;;;18.90;99.90;;;;;;5012951;28;20112;-77
2022/07/23 09:23:51;;;;;;;5.05;0.90;;;19.00;99.90;;;;;;5011822;28;20034;-77
2022/07/23 09:26:29;;;;;;;0.85;0.63;;;19.00;99.90;;;;;;5011633;28;20392;-77
2022/07/23 09:29:05;;;;;;;1.80;0.57;;;19.20;99.90;;;;;;5010542;28;20038;-77
2022/07/23 09:31:42;;;;;;;1.58;0.63;;;19.30;99.90;;;;;;5011869;28;20038;-77
2022/07/23 09:34:21;;;;;;;0.98;0.55;;;20.60;99.90;;;;;;5010106;28;20180;-77
2022/07/23 09:36:48;;;;;;;1.42;0.60;;;19.40;99.90;;;;;;5010480;28;20116;-77
2022/07/23 09:39:15;;;;;;;2.55;0.77;;;19.40;99.90;;;;;;5010407;28;20496;-77
2022/07/23 09:41:46;;;;;;;1.70;0.82;;;20.80;99.90;;;;;;5011613;28;20087;-77
2022/07/23 09:44:15;;;;;;;0.75;0.50;;;19.60;99.90;;;;;;5011563;28;20034;-77
2022/07/23 09:46:43;;;;;;;1.45;0.80;;;20.60;99.90;;;;;;5011943;28;20030;-77
2022/07/23 09:49:20;;;;;;;6.30;0.75;;;19.60;99.90;;;;;;5014121;28;20056;-76
2022/07/23 09:51:58;;;;;;;1.67;0.70;;;19.20;99.90;;;;;;5015194;28;20042;-77
2022/07/23 09:54:33;;;;;;;3.30;0.77;;;19.40;99.90;;;;;;5013547;28;20045;-76
2022/07/23 09:57:04;;;;;;;2.53;0.63;;;19.60;99.90;;;;;;4979984;28;20049;-76
2022/07/23 09:59:39;;;;;;;1.02;0.68;;;20.50;99.90;;;;;;4995242;28;20030;-77
2022/07/23 10:02:07;;;;;;;2.05;1.05;;;20.50;99.90;;;;;;4995523;28;20045;-77
2022/07/23 10:04:34;;;;;;;1.73;0.82;;;21.50;99.90;;;;;;4993651;28;20038;-77
2022/07/23 10:07:02;;;;;;;4.05;1.00;;;20.50;99.90;;;;;;4993931;28;20042;-77
2022/07/23 10:09:30;;;;;;;1.05;0.95;;;19.90;99.90;;;;;;4995135;28;20050;-77
2022/07/23 10:14:49;;;;;;;1.95;0.77;;;20.20;99.90;;;;;;4983202;28;20109;-77
2022/07/23 10:17:15;;;;;;;1.77;0.80;;;20.10;99.90;;;;;;4993669;28;20046;-77
2022/07/23 10:19:41;;;;;;;1.52;0.80;;;21.10;99.90;;;;;;4995241;28;20034;-77
2022/07/23 10:22:14;;;;;;;1.58;0.90;;;19.90;99.90;;;;;;4993692;28;20587;-76
2022/07/23 10:25:00;;;;;;;3.13;0.90;;;19.70;99.90;;;;;;4993468;28;20121;-77
2022/07/23 10:27:50;;;;;;;4.70;1.15;;;21.20;99.90;;;;;;4993830;28;20077;-77
2022/07/23 10:30:18;;;;;;;3.60;0.80;;;19.60;99.90;;;;;;4993711;28;20048;-77
2022/07/23 10:33:12;;;;;;;3.03;0.95;;;19.50;99.90;;;;;;4994944;28;20046;-76
2022/07/23 10:35:45;;;;;;;2.28;1.23;;;19.70;99.90;;;;;;4994832;28;20050;-76
2022/07/23 10:38:12;;;;;;;2.88;0.93;;;20.00;99.90;;;;;;4993492;28;20043;-76
2022/07/23 10:41:03;;;;;;;1.33;0.95;;;20.50;99.90;;;;;;4993490;28;20261;-77
2022/07/23 10:43:30;;;;;;;2.80;0.90;;;20.40;99.90;;;;;;4994787;28;20101;-77
2022/07/23 10:46:16;;;;;;;4.38;0.90;;;21.20;99.90;;;;;;4994540;28;20069;-77
2022/07/23 10:48:42;;;;;;;1.67;0.90;;;20.60;99.90;;;;;;4992914;28;20048;-77
2022/07/23 10:51:13;;;;;;;1.52;1.08;;;21.10;99.90;;;;;;4994311;28;20504;-76
2022/07/23 10:53:51;;;;;;;2.15;0.77;;;20.80;99.90;;;;;;4993402;28;20073;-77
2022/07/23 10:56:37;;;;;;;2.28;0.85;;;21.10;99.90;;;;;;4993384;28;20529;-77
2022/07/23 10:59:04;;;;;;;1.70;1.00;;;21.80;99.90;;;;;;4993231;28;20463;-77
2022/07/23 11:01:35;;;;;;;1.73;1.40;;;22.00;99.90;;;;;;4994480;28;20038;-77
2022/07/23 11:04:00;;;;;;;5.45;1.80;;;22.00;99.90;;;;;;4993102;28;20053;-77
2022/07/23 11:06:48;;;;;;;3.15;1.05;;;20.80;99.90;;;;;;4994595;28;20034;-77
2022/07/23 11:09:42;;;;;;;1.00;0.90;;;20.40;99.90;;;;;;4994185;28;20045;-77
2022/07/23 11:12:14;;;;;;;2.80;1.10;;;20.70;99.90;;;;;;4994477;28;20164;-77
2022/07/23 11:15:09;;;;;;;5.22;1.23;;;21.00;99.90;;;;;;4992574;28;20046;-77
2022/07/23 11:17:37;;;;;;;1.15;0.95;;;21.20;99.90;;;;;;4992894;28;20050;-77
2022/07/23 11:20:09;;;;;;;3.17;1.38;;;21.20;99.90;;;;;;4992610;28;20047;-76
2022/07/23 11:22:44;;;;;;;2.67;1.00;;;21.00;99.90;;;;;;4992744;28;20039;-77
2022/07/23 11:25:11;;;;;;;2.42;1.10;;;20.90;99.90;;;;;;4992423;28;20044;-77
2022/07/23 11:27:42;;;;;;;3.63;1.52;;;22.50;99.90;;;;;;4992792;28;20126;-77
2022/07/23 11:30:10;;;;;;;4.43;1.13;;;22.10;99.90;;;;;;4992694;28;20053;-77
2022/07/23 11:32:38;;;;;;;2.90;1.15;;;21.30;99.90;;;;;;4992649;28;20077;-77
2022/07/23 11:35:22;;;;;;;3.40;1.00;;;21.20;99.90;;;;;;4992320;28;20088;-77
2022/07/23 11:37:48;;;;;;;2.40;1.02;;;22.30;99.90;;;;;;4994491;28;20125;-77
2022/07/23 11:40:16;;;;;;;4.78;1.58;;;21.40;99.90;;;;;;4994378;28;20045;-77
2022/07/23 11:43:02;;;;;;;3.33;1.13;;;21.70;99.90;;;;;;4993561;28;20081;-76
2022/07/23 11:45:51;;;;;;;2.45;1.02;;;21.20;99.90;;;;;;4992769;28;20097;-76
2022/07/23 11:48:22;;;;;;;2.65;1.00;;;21.10;99.90;;;;;;4995300;28;20093;-76
2022/07/23 11:50:49;;;;;;;2.00;1.30;;;21.10;99.90;;;;;;4996721;28;20141;-76
2022/07/23 11:53:24;;;;;;;4.38;1.20;;;22.50;99.90;;;;;;4996688;28;20080;-76
2022/07/23 11:55:50;;;;;;;4.38;1.88;;;21.20;99.90;;;;;;4977353;28;20038;-76
2022/07/23 11:58:15;;;;;;;2.60;1.02;;;21.30;99.90;;;;;;4998783;28;20042;-76
2022/07/23 12:00:41;;;;;;;5.28;1.70;;;21.60;99.90;;;;;;5015703;28;20125;-76
2022/07/23 12:03:07;;;;;;;3.13;1.38;;;21.30;99.90;;;;;;5016563;28;20099;-76
2022/07/23 12:05:38;;;;;;;8.63;1.20;;;22.60;99.90;;;;;;5016471;28;20090;-76
2022/07/23 12:08:07;;;;;;;2.80;1.38;;;22.80;99.90;;;;;;5014039;28;20053;-76
2022/07/23 12:10:41;;;;;;;4.57;2.33;;;21.60;99.90;;;;;;4995676;28;20082;-76
2022/07/23 12:13:10;;;;;;;3.90;1.40;;;22.10;99.90;;;;;;4995134;28;20412;-76
2022/07/23 12:15:51;;;;;;;3.78;1.20;;;22.50;99.90;;;;;;4993162;28;20041;-75
2022/07/23 12:18:20;;;;;;;1.60;1.50;;;22.30;99.90;;;;;;4992816;28;20125;-76
2022/07/23 12:20:55;;;;;;;3.33;1.38;;;22.20;99.90;;;;;;4992715;28;20042;-76
2022/07/23 12:23:23;;;;;;;4.68;1.50;;;19.90;99.90;;;;;;4992139;28;20042;-76
2022/07/23 12:25:51;;;;;;;1.60;0.98;;;21.70;99.90;;;;;;4992931;28;20046;-75
2022/07/23 12:28:28;;;;;;;1.38;1.10;;;22.00;99.90;;;;;;4991939;28;20053;-76
2022/07/23 12:30:55;;;;;;;3.78;1.17;;;22.30;99.90;;;;;;4993316;28;20125;-76
2022/07/23 12:33:30;;;;;;;2.28;1.38;;;22.20;99.90;;;;;;4991899;28;20053;-76
2022/07/23 12:35:58;;;;;;;3.60;1.60;;;22.50;99.90;;;;;;4991659;28;20046;-76
2022/07/23 12:38:25;;;;;;;2.50;1.23;;;23.70;99.90;;;;;;4991854;28;20042;-76
2022/07/23 12:41:01;;;;;;;2.42;1.20;;;22.70;99.90;;;;;;4992817;28;20049;-77
2022/07/23 12:43:33;;;;;;;2.65;1.40;;;22.70;99.90;;;;;;4992001;28;20046;-77
2022/07/23 12:46:14;;;;;;;2.72;1.20;;;23.30;99.90;;;;;;4992377;28;20050;-77
2022/07/23 12:48:51;;;;;;;3.60;1.30;;;22.60;99.70;;;;;;4991207;28;20050;-77
2022/07/23 12:51:19;;;;;;;1.55;1.23;;;24.00;99.90;;;;;;4991346;28;20042;-77
2022/07/23 12:53:51;;;;;;;3.60;1.10;;;22.80;99.90;;;;;;4991341;28;20042;-77
2022/07/23 12:56:28;;;;;;;2.10;1.42;;;23.10;99.90;;;;;;4991155;28;20504;-77
2022/07/23 12:59:10;;;;;;;1.35;1.10;;;22.70;99.60;;;;;;4990959;28;20480;-77
2022/07/23 13:01:37;;;;;;;3.88;1.10;;;23.00;99.40;;;;;;4991775;28;20054;-77
2022/07/23 13:04:15;;;;;;;2.97;1.40;;;22.80;99.70;;;;;;4991238;28;20043;-77
2022/07/23 13:06:42;;;;;;;2.83;1.58;;;23.10;99.90;;;;;;4991641;28;20501;-76
2022/07/23 13:09:12;;;;;;;1.88;1.05;;;22.60;99.90;;;;;;4992736;28;20050;-77